Overview Statistics Trail Chart Weather Telemetry Raw packets
 

This is the latest recevied weather packets stored in our database for station/object OE6JVE-13. If no packets are shown the sender has not sent any weather packets the latest 10 day(s).

<< 43 44 45 46 47 48 49 >>
Time Temp. Humidity Pressure Rain* Wind** Luminosity Snow
1787943070 21.67° C 90% 1003.2 hPa 0 mm - - -
1787942478 21.67° C 90% 1002.9 hPa 0 mm - - -
1787941820 22.22° C 89% 1002.8 hPa 0 mm - - -
1787941229 22.22° C 85% 1002.7 hPa 0 mm - - -
1787940636 22.78° C 85% 1002.8 hPa 0 mm - - -
1787940075 22.78° C 84% 1002.9 hPa 0 mm - - -
1787938866 23.33° C 82% 1002.7 hPa 0 mm - - -
1787938306 23.89° C 81% 1002.7 hPa 0 mm - - -
1787937677 23.89° C 80% 1002.9 hPa 0 mm - - -
1787937059 24.44° C 79% 1002.8 hPa 0 mm - - -
1787936433 25° C 77% 1002.9 hPa 0 mm - - -
1787935845 25.56° C 76% 1003 hPa 0 mm - - -
1787935326 26.11° C 74% 1003 hPa 0 mm - - -
1787934682 26.67° C 73% 1003 hPa 0 mm - - -
1787934159 27.22° C 71% 1003 hPa 0 mm - - -
1787933476 27.78° C 66% 1003.1 hPa 0 mm - - -
1787932872 28.33° C 66% 1003.1 hPa 0 mm - - -
1787932281 28.89° C 62% 1003.2 hPa 0 mm - - -
1787931622 29.44° C 62% 1003.3 hPa 0 mm - - -
1787931030 28.33° C 68% 1003.3 hPa 0 mm - - -
1787930438 27.22° C 71% 1003.4 hPa 0 mm - - -
1787929846 26.67° C 72% 1003.3 hPa 0 mm - - -
1787929254 26.67° C 72% 1003.5 hPa 0 mm - - -
1787928661 26.67° C 72% 1003.4 hPa 0 mm - - -
1787928069 27.22° C 71% 1003.4 hPa 0 mm - - -

* Rain latest hour (hover to see other rain measurements)
** Current wind speed in m/s (hover to see current wind gust speed)